Krabi, Thailand

7:08 PM ICT on May 04, 2015 (GMT +0700)
Ao Nang, Krabi | | Change Station
CLOSE
Current Station
Personal Weather Station
Location: Ao Nang, Krabi
Elevation: 177 ft
Nearby Weather Stations

Elev 177 ft 8.05 °N, 98.84 °E | Updated 29 seconds ago

Scattered Clouds
Scattered Clouds
86.5 °F
Feels Like 98 °F
N
1.1
Wind Variable Wind from SE
Gusts 2.0 mph

Today
High -- | Low -- °F
--% Chance of Precip.
Yesterday
High -- | Low -- °F
Precip. -- in
6:08 AM 6:33 PM
Full, 100% visible
Pressure 29.80 in
Visibility 6.2 miles
Clouds Few 2000 ft
Few 2200 ft
Scattered Clouds 30000 ft
Heat Index 98 °F
Dew Point 77 °F
Humidity 73%
Rainfall 0.00 in
Snow Depth Not available.
UV 0.0 out of 12
Pollen Not available.
Air Quality Not available.
Flu Activity Not available.
METAR VTSP 041200Z 29010KT 9999 FEW020 FEW022CB SCT300 30/23 Q1009 A2981 NOSIG

More Conditions Fewer Conditions

Pressure 29.80 in
Visibility 6.2 miles
Clouds Few 2000 ft
Few 2200 ft
Scattered Clouds 30000 ft
Heat Index 98 °F
Dew Point 77 °F
Humidity 73%
Rainfall 0.00 in
Snow Depth Not available.
UV 0.0 out of 12
Pollen Not available.
Air Quality Not available.
Flu Activity Not available.
METAR VTSP 041200Z 29010KT 9999 FEW020 FEW022CB SCT300 30/23 Q1009 A2981 NOSIG

More Conditions Fewer Conditions

10-Day Weather Forecast

Almanac

Astronomy

May. 04, 2015 Rise Set
Actual Time
Civil Twilight
Nautical Twilight
Astronomical Twilight
Moon
Length of Visible Light
Length of Day
Tomorrow will be .
, % of the Moon is Illuminated

Today's Extremes

Country Highs Country Lows

Community

WunderPhotos

Upload Photos

1,818,580 photos uploaded!

WunderBlogs® & News

Nearby

Air Quality

  Air Quality AQ Index Pollutant
Not available.

Snow Depth

Station Depth Elevation

Earthquake Activity

City Distance Mag. Time & Date
Minimum magnitude displayed is 2.5.

Coastal Water Temperatures

Place Temperature

Stations

Nearby Weather Stations

Station Location Temp. Windchill Dew Point Humidity Wind Precip. Elev Updated Type